sensor_id;sensor_type;location;lat;lon;timestamp;temperature;humidity
18898;DHT22;9581;49.484;8.556;2023-04-19T00:01:07;11.80;99.90
18898;DHT22;9581;49.484;8.556;2023-04-19T00:03:35;11.70;99.90
18898;DHT22;9581;49.484;8.556;2023-04-19T00:06:02;11.70;99.90
18898;DHT22;9581;49.484;8.556;2023-04-19T00:08:29;11.70;99.90
18898;DHT22;9581;49.484;8.556;2023-04-19T00:10:56;11.70;99.90
18898;DHT22;9581;49.484;8.556;2023-04-19T00:13:23;11.70;99.90
18898;DHT22;9581;49.484;8.556;2023-04-19T00:15:50;11.70;99.90
18898;DHT22;9581;49.484;8.556;2023-04-19T00:18:17;11.70;99.90
18898;DHT22;9581;49.484;8.556;2023-04-19T00:20:45;11.60;99.90
18898;DHT22;9581;49.484;8.556;2023-04-19T00:23:13;11.40;99.90
18898;DHT22;9581;49.484;8.556;2023-04-19T00:25:39;11.50;99.90
18898;DHT22;9581;49.484;8.556;2023-04-19T00:28:06;11.60;99.90
18898;DHT22;9581;49.484;8.556;2023-04-19T00:30:33;11.60;99.90
18898;DHT22;9581;49.484;8.556;2023-04-19T00:33:00;11.60;99.90
18898;DHT22;9581;49.484;8.556;2023-04-19T00:35:27;11.70;99.90
18898;DHT22;9581;49.484;8.556;2023-04-19T00:37:55;11.70;99.90
18898;DHT22;9581;49.484;8.556;2023-04-19T00:40:22;11.60;99.90
18898;DHT22;9581;49.484;8.556;2023-04-19T00:42:48;11.70;99.90
18898;DHT22;9581;49.484;8.556;2023-04-19T00:45:15;11.70;99.90
18898;DHT22;9581;49.484;8.556;2023-04-19T00:47:42;11.60;99.90
18898;DHT22;9581;49.484;8.556;2023-04-19T00:50:10;11.70;99.90
18898;DHT22;9581;49.484;8.556;2023-04-19T00:52:38;11.60;99.90
18898;DHT22;9581;49.484;8.556;2023-04-19T00:55:07;11.70;99.90
18898;DHT22;9581;49.484;8.556;2023-04-19T00:57:35;11.80;99.90
18898;DHT22;9581;49.484;8.556;2023-04-19T01:00:03;11.70;99.90
18898;DHT22;9581;49.484;8.556;2023-04-19T01:02:32;11.70;99.90
18898;DHT22;9581;49.484;8.556;2023-04-19T01:04:59;11.70;99.90
18898;DHT22;9581;49.484;8.556;2023-04-19T01:07:26;11.70;99.90
18898;DHT22;9581;49.484;8.556;2023-04-19T01:09:53;11.60;99.90
18898;DHT22;9581;49.484;8.556;2023-04-19T01:12:21;11.50;99.90
18898;DHT22;9581;49.484;8.556;2023-04-19T01:14:49;11.60;99.90
18898;DHT22;9581;49.484;8.556;2023-04-19T01:17:17;11.70;99.90
18898;DHT22;9581;49.484;8.556;2023-04-19T01:19:44;11.40;99.90
18898;DHT22;9581;49.484;8.556;2023-04-19T01:22:15;11.60;99.90
18898;DHT22;9581;49.484;8.556;2023-04-19T01:24:42;11.60;99.90
18898;DHT22;9581;49.484;8.556;2023-04-19T01:27:09;11.40;99.90
18898;DHT22;9581;49.484;8.556;2023-04-19T01:29:37;11.50;99.90
18898;DHT22;9581;49.484;8.556;2023-04-19T01:32:04;11.60;99.90
18898;DHT22;9581;49.484;8.556;2023-04-19T01:34:30;11.60;99.90
18898;DHT22;9581;49.484;8.556;2023-04-19T01:36:57;11.50;99.90
18898;DHT22;9581;49.484;8.556;2023-04-19T01:39:26;11.60;99.90
18898;DHT22;9581;49.484;8.556;2023-04-19T01:41:53;11.60;99.90
18898;DHT22;9581;49.484;8.556;2023-04-19T01:44:19;11.50;99.90
18898;DHT22;9581;49.484;8.556;2023-04-19T01:46:47;11.50;99.90
18898;DHT22;9581;49.484;8.556;2023-04-19T01:49:13;11.40;99.90
18898;DHT22;9581;49.484;8.556;2023-04-19T01:51:40;11.50;99.90
18898;DHT22;9581;49.484;8.556;2023-04-19T01:54:07;11.50;99.90
18898;DHT22;9581;49.484;8.556;2023-04-19T01:56:35;11.70;99.90
18898;DHT22;9581;49.484;8.556;2023-04-19T01:59:02;11.60;99.90
18898;DHT22;9581;49.484;8.556;2023-04-19T02:01:29;11.60;99.90
18898;DHT22;9581;49.484;8.556;2023-04-19T02:03:56;11.60;99.90
18898;DHT22;9581;49.484;8.556;2023-04-19T02:06:23;11.50;99.90
18898;DHT22;9581;49.484;8.556;2023-04-19T02:08:51;11.50;99.90
18898;DHT22;9581;49.484;8.556;2023-04-19T02:11:18;11.50;99.90
18898;DHT22;9581;49.484;8.556;2023-04-19T02:13:46;11.40;99.90
18898;DHT22;9581;49.484;8.556;2023-04-19T02:16:13;11.40;99.90
18898;DHT22;9581;49.484;8.556;2023-04-19T02:18:40;11.40;99.90
18898;DHT22;9581;49.484;8.556;2023-04-19T02:21:08;11.50;99.90
18898;DHT22;9581;49.484;8.556;2023-04-19T02:23:35;11.50;99.90
18898;DHT22;9581;49.484;8.556;2023-04-19T02:26:01;11.40;99.90
18898;DHT22;9581;49.484;8.556;2023-04-19T02:28:28;11.40;99.90
18898;DHT22;9581;49.484;8.556;2023-04-19T02:30:57;11.30;99.90
18898;DHT22;9581;49.484;8.556;2023-04-19T02:33:25;11.40;99.90
18898;DHT22;9581;49.484;8.556;2023-04-19T02:35:53;11.30;99.90
18898;DHT22;9581;49.484;8.556;2023-04-19T02:38:20;11.40;99.90
18898;DHT22;9581;49.484;8.556;2023-04-19T02:40:46;11.50;99.90
18898;DHT22;9581;49.484;8.556;2023-04-19T02:43:13;11.40;99.90
18898;DHT22;9581;49.484;8.556;2023-04-19T02:45:40;11.30;99.90
18898;DHT22;9581;49.484;8.556;2023-04-19T02:48:08;11.20;99.90
18898;DHT22;9581;49.484;8.556;2023-04-19T02:50:36;11.30;99.90
18898;DHT22;9581;49.484;8.556;2023-04-19T02:53:03;11.40;99.90
18898;DHT22;9581;49.484;8.556;2023-04-19T02:55:29;11.30;99.90
18898;DHT22;9581;49.484;8.556;2023-04-19T02:57:56;11.30;99.90
18898;DHT22;9581;49.484;8.556;2023-04-19T03:00:23;11.40;99.90
18898;DHT22;9581;49.484;8.556;2023-04-19T03:02:50;11.40;99.90
18898;DHT22;9581;49.484;8.556;2023-04-19T03:05:18;11.40;99.90
18898;DHT22;9581;49.484;8.556;2023-04-19T03:07:45;11.20;99.90
18898;DHT22;9581;49.484;8.556;2023-04-19T03:10:12;11.20;99.90
18898;DHT22;9581;49.484;8.556;2023-04-19T03:12:38;11.20;99.90
18898;DHT22;9581;49.484;8.556;2023-04-19T03:15:07;11.20;99.90
18898;DHT22;9581;49.484;8.556;2023-04-19T03:17:34;11.20;99.90
18898;DHT22;9581;49.484;8.556;2023-04-19T03:20:01;11.30;99.90
18898;DHT22;9581;49.484;8.556;2023-04-19T03:22:33;11.40;99.90
18898;DHT22;9581;49.484;8.556;2023-04-19T03:25:00;11.30;99.90
18898;DHT22;9581;49.484;8.556;2023-04-19T03:27:27;11.30;99.90
18898;DHT22;9581;49.484;8.556;2023-04-19T03:29:54;11.40;99.90
18898;DHT22;9581;49.484;8.556;2023-04-19T03:32:21;11.20;99.90
18898;DHT22;9581;49.484;8.556;2023-04-19T03:34:48;11.10;99.90
18898;DHT22;9581;49.484;8.556;2023-04-19T03:37:15;11.10;99.90
18898;DHT22;9581;49.484;8.556;2023-04-19T03:39:43;11.10;99.90
18898;DHT22;9581;49.484;8.556;2023-04-19T03:42:10;11.10;99.90
18898;DHT22;9581;49.484;8.556;2023-04-19T03:44:36;11.00;99.90
18898;DHT22;9581;49.484;8.556;2023-04-19T03:47:03;11.20;99.90
18898;DHT22;9581;49.484;8.556;2023-04-19T03:49:30;11.00;99.90
18898;DHT22;9581;49.484;8.556;2023-04-19T03:51:57;11.20;99.90
18898;DHT22;9581;49.484;8.556;2023-04-19T03:54:24;11.20;99.90
18898;DHT22;9581;49.484;8.556;2023-04-19T03:56:52;11.10;99.90
18898;DHT22;9581;49.484;8.556;2023-04-19T03:59:18;11.30;99.90
18898;DHT22;9581;49.484;8.556;2023-04-19T04:01:45;11.30;99.90
18898;DHT22;9581;49.484;8.556;2023-04-19T04:04:12;11.30;99.90
18898;DHT22;9581;49.484;8.556;2023-04-19T04:06:39;11.00;99.90
18898;DHT22;9581;49.484;8.556;2023-04-19T04:09:05;11.10;99.90
18898;DHT22;9581;49.484;8.556;2023-04-19T04:11:33;11.10;99.90
18898;DHT22;9581;49.484;8.556;2023-04-19T04:14:01;11.20;99.90
18898;DHT22;9581;49.484;8.556;2023-04-19T04:16:28;11.20;99.90
18898;DHT22;9581;49.484;8.556;2023-04-19T04:18:54;11.40;99.90
18898;DHT22;9581;49.484;8.556;2023-04-19T04:21:21;11.40;99.90
18898;DHT22;9581;49.484;8.556;2023-04-19T04:23:49;11.50;99.90
18898;DHT22;9581;49.484;8.556;2023-04-19T04:26:16;11.50;99.90
18898;DHT22;9581;49.484;8.556;2023-04-19T04:28:44;11.50;99.90
18898;DHT22;9581;49.484;8.556;2023-04-19T04:31:13;11.40;99.90
18898;DHT22;9581;49.484;8.556;2023-04-19T04:33:42;11.40;99.90
18898;DHT22;9581;49.484;8.556;2023-04-19T04:36:10;11.50;99.90
18898;DHT22;9581;49.484;8.556;2023-04-19T04:38:37;11.40;99.90
18898;DHT22;9581;49.484;8.556;2023-04-19T04:41:04;11.40;99.90
18898;DHT22;9581;49.484;8.556;2023-04-19T04:43:31;11.40;99.90
18898;DHT22;9581;49.484;8.556;2023-04-19T04:45:59;11.40;99.90
18898;DHT22;9581;49.484;8.556;2023-04-19T04:48:27;11.30;99.90
18898;DHT22;9581;49.484;8.556;2023-04-19T04:50:55;11.20;99.90
18898;DHT22;9581;49.484;8.556;2023-04-19T04:53:24;11.40;99.90
18898;DHT22;9581;49.484;8.556;2023-04-19T04:55:52;11.50;99.90
18898;DHT22;9581;49.484;8.556;2023-04-19T04:58:19;11.50;99.90
18898;DHT22;9581;49.484;8.556;2023-04-19T05:00:46;11.30;99.90
18898;DHT22;9581;49.484;8.556;2023-04-19T05:03:13;11.30;99.90
18898;DHT22;9581;49.484;8.556;2023-04-19T05:05:42;11.20;99.90
18898;DHT22;9581;49.484;8.556;2023-04-19T05:08:09;11.20;99.90
18898;DHT22;9581;49.484;8.556;2023-04-19T05:10:35;11.20;99.90
18898;DHT22;9581;49.484;8.556;2023-04-19T05:13:02;11.10;99.90
18898;DHT22;9581;49.484;8.556;2023-04-19T05:15:29;11.30;99.90
18898;DHT22;9581;49.484;8.556;2023-04-19T05:17:56;11.40;99.90
18898;DHT22;9581;49.484;8.556;2023-04-19T05:20:23;11.50;99.90
18898;DHT22;9581;49.484;8.556;2023-04-19T05:22:55;11.50;99.90
18898;DHT22;9581;49.484;8.556;2023-04-19T05:25:22;11.60;99.90
18898;DHT22;9581;49.484;8.556;2023-04-19T05:27:49;11.70;99.90
18898;DHT22;9581;49.484;8.556;2023-04-19T05:30:16;11.70;99.90
18898;DHT22;9581;49.484;8.556;2023-04-19T05:32:43;11.80;99.90
18898;DHT22;9581;49.484;8.556;2023-04-19T05:35:10;11.80;99.90
18898;DHT22;9581;49.484;8.556;2023-04-19T05:37:37;11.80;99.90
18898;DHT22;9581;49.484;8.556;2023-04-19T05:40:08;11.80;99.90
18898;DHT22;9581;49.484;8.556;2023-04-19T05:42:35;11.80;99.90
18898;DHT22;9581;49.484;8.556;2023-04-19T05:45:03;11.90;99.90
18898;DHT22;9581;49.484;8.556;2023-04-19T05:47:30;12.00;99.90
18898;DHT22;9581;49.484;8.556;2023-04-19T05:49:57;11.90;99.90
18898;DHT22;9581;49.484;8.556;2023-04-19T05:52:24;11.90;99.90
18898;DHT22;9581;49.484;8.556;2023-04-19T05:54:50;11.80;99.90
18898;DHT22;9581;49.484;8.556;2023-04-19T05:57:18;11.90;99.90
18898;DHT22;9581;49.484;8.556;2023-04-19T05:59:45;11.90;99.90
18898;DHT22;9581;49.484;8.556;2023-04-19T06:02:12;12.00;99.90
18898;DHT22;9581;49.484;8.556;2023-04-19T06:04:39;12.10;99.90
18898;DHT22;9581;49.484;8.556;2023-04-19T06:07:06;12.10;99.90
18898;DHT22;9581;49.484;8.556;2023-04-19T06:09:33;12.10;99.90
18898;DHT22;9581;49.484;8.556;2023-04-19T06:11:59;12.10;99.90
18898;DHT22;9581;49.484;8.556;2023-04-19T06:14:28;12.10;99.90
18898;DHT22;9581;49.484;8.556;2023-04-19T06:16:54;12.10;99.90
18898;DHT22;9581;49.484;8.556;2023-04-19T06:19:21;12.20;99.90
18898;DHT22;9581;49.484;8.556;2023-04-19T06:21:48;12.10;99.90
18898;DHT22;9581;49.484;8.556;2023-04-19T06:24:15;12.20;99.90
18898;DHT22;9581;49.484;8.556;2023-04-19T06:26:42;12.30;99.90
18898;DHT22;9581;49.484;8.556;2023-04-19T06:29:09;12.50;99.90
18898;DHT22;9581;49.484;8.556;2023-04-19T06:31:37;12.50;99.90
18898;DHT22;9581;49.484;8.556;2023-04-19T06:34:04;12.50;99.90
18898;DHT22;9581;49.484;8.556;2023-04-19T06:36:31;12.70;99.90
18898;DHT22;9581;49.484;8.556;2023-04-19T06:38:58;12.90;99.90
18898;DHT22;9581;49.484;8.556;2023-04-19T06:41:25;12.90;99.90
18898;DHT22;9581;49.484;8.556;2023-04-19T06:43:52;13.10;99.90
18898;DHT22;9581;49.484;8.556;2023-04-19T06:46:18;13.10;99.90
18898;DHT22;9581;49.484;8.556;2023-04-19T06:48:47;13.10;99.90
18898;DHT22;9581;49.484;8.556;2023-04-19T06:51:13;13.10;99.90
18898;DHT22;9581;49.484;8.556;2023-04-19T06:53:41;13.20;99.90
18898;DHT22;9581;49.484;8.556;2023-04-19T06:56:09;13.00;99.90
18898;DHT22;9581;49.484;8.556;2023-04-19T06:58:37;12.90;99.90
18898;DHT22;9581;49.484;8.556;2023-04-19T07:01:04;13.10;99.90
18898;DHT22;9581;49.484;8.556;2023-04-19T07:03:31;13.30;99.90
18898;DHT22;9581;49.484;8.556;2023-04-19T07:05:59;13.60;99.90
18898;DHT22;9581;49.484;8.556;2023-04-19T07:08:26;13.60;99.90
18898;DHT22;9581;49.484;8.556;2023-04-19T07:10:53;13.50;99.90
18898;DHT22;9581;49.484;8.556;2023-04-19T07:13:21;13.40;99.90
18898;DHT22;9581;49.484;8.556;2023-04-19T07:15:47;13.30;99.90
18898;DHT22;9581;49.484;8.556;2023-04-19T07:18:14;13.60;99.90
18898;DHT22;9581;49.484;8.556;2023-04-19T07:20:41;13.70;99.90
18898;DHT22;9581;49.484;8.556;2023-04-19T07:23:14;13.80;99.90
18898;DHT22;9581;49.484;8.556;2023-04-19T07:25:41;13.90;99.90
18898;DHT22;9581;49.484;8.556;2023-04-19T07:28:08;14.10;99.90
18898;DHT22;9581;49.484;8.556;2023-04-19T07:30:35;14.20;99.90
18898;DHT22;9581;49.484;8.556;2023-04-19T07:33:02;14.50;99.90
18898;DHT22;9581;49.484;8.556;2023-04-19T07:35:30;14.80;99.90
18898;DHT22;9581;49.484;8.556;2023-04-19T07:37:57;14.70;99.90
18898;DHT22;9581;49.484;8.556;2023-04-19T07:40:25;14.60;99.90
18898;DHT22;9581;49.484;8.556;2023-04-19T07:42:54;14.60;99.90
18898;DHT22;9581;49.484;8.556;2023-04-19T07:45:21;15.00;99.90
18898;DHT22;9581;49.484;8.556;2023-04-19T07:47:48;14.90;99.90
18898;DHT22;9581;49.484;8.556;2023-04-19T07:50:14;14.80;99.90
18898;DHT22;9581;49.484;8.556;2023-04-19T07:52:41;14.60;99.90
18898;DHT22;9581;49.484;8.556;2023-04-19T07:55:08;14.60;99.90
18898;DHT22;9581;49.484;8.556;2023-04-19T07:57:37;14.40;99.90
18898;DHT22;9581;49.484;8.556;2023-04-19T08:00:04;14.30;99.90
18898;DHT22;9581;49.484;8.556;2023-04-19T08:02:31;14.30;99.90
18898;DHT22;9581;49.484;8.556;2023-04-19T08:04:58;14.20;99.90
18898;DHT22;9581;49.484;8.556;2023-04-19T08:07:26;14.30;99.90
18898;DHT22;9581;49.484;8.556;2023-04-19T08:09:53;14.30;99.90
18898;DHT22;9581;49.484;8.556;2023-04-19T08:12:20;14.30;99.90
18898;DHT22;9581;49.484;8.556;2023-04-19T08:14:48;14.30;99.90
18898;DHT22;9581;49.484;8.556;2023-04-19T08:17:14;14.30;99.90
18898;DHT22;9581;49.484;8.556;2023-04-19T08:19:45;14.50;99.90
18898;DHT22;9581;49.484;8.556;2023-04-19T08:22:14;14.60;99.90
18898;DHT22;9581;49.484;8.556;2023-04-19T08:24:40;14.60;99.90
18898;DHT22;9581;49.484;8.556;2023-04-19T08:27:08;14.50;99.90
18898;DHT22;9581;49.484;8.556;2023-04-19T08:29:35;14.70;99.90
18898;DHT22;9581;49.484;8.556;2023-04-19T08:32:03;14.70;99.90
18898;DHT22;9581;49.484;8.556;2023-04-19T08:34:30;14.60;99.90
18898;DHT22;9581;49.484;8.556;2023-04-19T08:36:57;14.60;99.90
18898;DHT22;9581;49.484;8.556;2023-04-19T08:39:23;14.70;99.90
18898;DHT22;9581;49.484;8.556;2023-04-19T08:41:50;14.70;99.90
18898;DHT22;9581;49.484;8.556;2023-04-19T08:44:18;14.80;99.90
18898;DHT22;9581;49.484;8.556;2023-04-19T08:46:46;14.80;99.90
18898;DHT22;9581;49.484;8.556;2023-04-19T08:49:16;14.80;99.90
18898;DHT22;9581;49.484;8.556;2023-04-19T08:51:47;14.80;99.90
18898;DHT22;9581;49.484;8.556;2023-04-19T08:54:14;14.70;99.90
18898;DHT22;9581;49.484;8.556;2023-04-19T08:56:41;14.80;99.90
18898;DHT22;9581;49.484;8.556;2023-04-19T08:59:08;14.90;99.90
18898;DHT22;9581;49.484;8.556;2023-04-19T09:01:35;14.90;99.90
18898;DHT22;9581;49.484;8.556;2023-04-19T09:04:02;14.90;99.90
18898;DHT22;9581;49.484;8.556;2023-04-19T09:06:35;15.00;99.90
18898;DHT22;9581;49.484;8.556;2023-04-19T09:09:13;15.20;99.90
18898;DHT22;9581;49.484;8.556;2023-04-19T09:11:41;15.10;99.90
18898;DHT22;9581;49.484;8.556;2023-04-19T09:14:08;15.20;99.90
18898;DHT22;9581;49.484;8.556;2023-04-19T09:16:35;15.20;99.90
18898;DHT22;9581;49.484;8.556;2023-04-19T09:19:03;15.20;99.90
18898;DHT22;9581;49.484;8.556;2023-04-19T09:21:30;15.30;99.90
18898;DHT22;9581;49.484;8.556;2023-04-19T09:23:59;15.30;99.90
18898;DHT22;9581;49.484;8.556;2023-04-19T09:26:26;15.30;99.90
18898;DHT22;9581;49.484;8.556;2023-04-19T09:28:55;15.40;99.90
18898;DHT22;9581;49.484;8.556;2023-04-19T09:31:22;15.20;99.90
18898;DHT22;9581;49.484;8.556;2023-04-19T09:33:50;15.10;99.90
18898;DHT22;9581;49.484;8.556;2023-04-19T09:36:29;15.00;99.90
18898;DHT22;9581;49.484;8.556;2023-04-19T09:38:57;15.00;99.90
18898;DHT22;9581;49.484;8.556;2023-04-19T09:41:25;15.10;99.90
18898;DHT22;9581;49.484;8.556;2023-04-19T09:43:52;15.00;99.90
18898;DHT22;9581;49.484;8.556;2023-04-19T09:46:37;15.00;99.90
18898;DHT22;9581;49.484;8.556;2023-04-19T09:49:21;15.00;99.90
18898;DHT22;9581;49.484;8.556;2023-04-19T09:51:50;15.00;99.90
18898;DHT22;9581;49.484;8.556;2023-04-19T09:54:18;15.10;99.90
18898;DHT22;9581;49.484;8.556;2023-04-19T09:56:47;15.20;99.90
18898;DHT22;9581;49.484;8.556;2023-04-19T09:59:14;15.20;99.90
18898;DHT22;9581;49.484;8.556;2023-04-19T10:01:43;15.30;99.90
18898;DHT22;9581;49.484;8.556;2023-04-19T10:04:11;15.30;99.90
18898;DHT22;9581;49.484;8.556;2023-04-19T10:06:39;15.10;99.90
18898;DHT22;9581;49.484;8.556;2023-04-19T10:09:06;15.10;99.90
18898;DHT22;9581;49.484;8.556;2023-04-19T10:11:34;15.10;99.90
18898;DHT22;9581;49.484;8.556;2023-04-19T10:14:06;15.00;99.90
18898;DHT22;9581;49.484;8.556;2023-04-19T10:16:34;14.90;99.90
18898;DHT22;9581;49.484;8.556;2023-04-19T10:19:02;14.80;99.90
18898;DHT22;9581;49.484;8.556;2023-04-19T10:21:29;14.70;99.90
18898;DHT22;9581;49.484;8.556;2023-04-19T10:23:58;14.40;99.90
18898;DHT22;9581;49.484;8.556;2023-04-19T10:26:25;14.40;99.90
18898;DHT22;9581;49.484;8.556;2023-04-19T10:28:53;14.30;99.90
18898;DHT22;9581;49.484;8.556;2023-04-19T10:31:24;14.20;99.90
18898;DHT22;9581;49.484;8.556;2023-04-19T10:33:51;14.10;99.90
18898;DHT22;9581;49.484;8.556;2023-04-19T10:36:19;14.00;99.90
18898;DHT22;9581;49.484;8.556;2023-04-19T10:38:47;14.00;99.90
18898;DHT22;9581;49.484;8.556;2023-04-19T10:41:17;13.90;99.90
18898;DHT22;9581;49.484;8.556;2023-04-19T10:43:45;13.90;99.90
18898;DHT22;9581;49.484;8.556;2023-04-19T10:46:14;13.90;99.90
18898;DHT22;9581;49.484;8.556;2023-04-19T10:48:53;13.90;99.90
18898;DHT22;9581;49.484;8.556;2023-04-19T10:51:21;14.00;99.90
18898;DHT22;9581;49.484;8.556;2023-04-19T10:53:56;14.20;99.90
18898;DHT22;9581;49.484;8.556;2023-04-19T10:56:58;14.10;99.90
18898;DHT22;9581;49.484;8.556;2023-04-19T10:59:28;14.30;99.90
18898;DHT22;9581;49.484;8.556;2023-04-19T11:01:56;14.30;99.90
18898;DHT22;9581;49.484;8.556;2023-04-19T11:04:56;14.40;99.90
18898;DHT22;9581;49.484;8.556;2023-04-19T11:07:23;14.40;99.90
18898;DHT22;9581;49.484;8.556;2023-04-19T11:09:50;14.80;99.90
18898;DHT22;9581;49.484;8.556;2023-04-19T11:12:18;15.10;99.90
18898;DHT22;9581;49.484;8.556;2023-04-19T11:14:46;15.40;99.90
18898;DHT22;9581;49.484;8.556;2023-04-19T11:17:15;15.60;99.90
18898;DHT22;9581;49.484;8.556;2023-04-19T11:19:44;16.00;99.90
18898;DHT22;9581;49.484;8.556;2023-04-19T11:22:23;16.20;99.90
18898;DHT22;9581;49.484;8.556;2023-04-19T11:24:50;16.20;99.90
18898;DHT22;9581;49.484;8.556;2023-04-19T11:27:17;16.40;99.90
18898;DHT22;9581;49.484;8.556;2023-04-19T11:29:44;16.20;99.90
18898;DHT22;9581;49.484;8.556;2023-04-19T11:32:10;16.30;99.90
18898;DHT22;9581;49.484;8.556;2023-04-19T11:34:39;16.40;99.90
18898;DHT22;9581;49.484;8.556;2023-04-19T11:37:08;16.40;99.90
18898;DHT22;9581;49.484;8.556;2023-04-19T11:39:44;16.40;99.90
18898;DHT22;9581;49.484;8.556;2023-04-19T11:42:16;16.70;99.90
18898;DHT22;9581;49.484;8.556;2023-04-19T11:44:48;16.90;99.90
18898;DHT22;9581;49.484;8.556;2023-04-19T11:47:16;17.00;99.90
18898;DHT22;9581;49.484;8.556;2023-04-19T11:49:43;17.10;99.90
18898;DHT22;9581;49.484;8.556;2023-04-19T11:52:20;17.10;99.90
18898;DHT22;9581;49.484;8.556;2023-04-19T11:54:47;16.90;99.90
18898;DHT22;9581;49.484;8.556;2023-04-19T11:57:13;16.60;99.90
18898;DHT22;9581;49.484;8.556;2023-04-19T12:00:01;16.40;99.90
18898;DHT22;9581;49.484;8.556;2023-04-19T12:02:29;16.30;99.90
18898;DHT22;9581;49.484;8.556;2023-04-19T12:05:06;16.20;99.90
18898;DHT22;9581;49.484;8.556;2023-04-19T12:07:35;16.10;99.90
18898;DHT22;9581;49.484;8.556;2023-04-19T12:10:07;16.10;99.90
18898;DHT22;9581;49.484;8.556;2023-04-19T12:12:36;16.00;99.90
18898;DHT22;9581;49.484;8.556;2023-04-19T12:15:03;16.00;99.90
18898;DHT22;9581;49.484;8.556;2023-04-19T12:17:30;16.20;99.90
18898;DHT22;9581;49.484;8.556;2023-04-19T12:19:56;16.30;99.90
18898;DHT22;9581;49.484;8.556;2023-04-19T12:22:23;16.60;99.90
18898;DHT22;9581;49.484;8.556;2023-04-19T12:24:52;16.70;99.90
18898;DHT22;9581;49.484;8.556;2023-04-19T12:27:19;16.80;99.90
18898;DHT22;9581;49.484;8.556;2023-04-19T12:29:46;17.10;99.90
18898;DHT22;9581;49.484;8.556;2023-04-19T12:32:13;17.40;99.90
18898;DHT22;9581;49.484;8.556;2023-04-19T12:34:40;17.60;99.90
18898;DHT22;9581;49.484;8.556;2023-04-19T12:37:07;18.10;99.90
18898;DHT22;9581;49.484;8.556;2023-04-19T12:39:33;18.70;99.90
18898;DHT22;9581;49.484;8.556;2023-04-19T12:42:02;19.10;99.90
18898;DHT22;9581;49.484;8.556;2023-04-19T12:44:30;19.30;99.90
18898;DHT22;9581;49.484;8.556;2023-04-19T12:46:57;19.20;99.90
18898;DHT22;9581;49.484;8.556;2023-04-19T12:49:24;18.80;99.90
18898;DHT22;9581;49.484;8.556;2023-04-19T12:51:51;18.40;99.90
18898;DHT22;9581;49.484;8.556;2023-04-19T12:54:17;18.10;99.90
18898;DHT22;9581;49.484;8.556;2023-04-19T12:56:44;18.50;99.90
18898;DHT22;9581;49.484;8.556;2023-04-19T12:59:12;19.30;99.90
18898;DHT22;9581;49.484;8.556;2023-04-19T13:01:39;19.80;99.90
18898;DHT22;9581;49.484;8.556;2023-04-19T13:04:06;19.70;99.00
18898;DHT22;9581;49.484;8.556;2023-04-19T13:06:36;19.60;99.40
18898;DHT22;9581;49.484;8.556;2023-04-19T13:09:03;19.20;98.10
18898;DHT22;9581;49.484;8.556;2023-04-19T13:11:30;19.00;98.10
18898;DHT22;9581;49.484;8.556;2023-04-19T13:13:57;19.20;99.50
18898;DHT22;9581;49.484;8.556;2023-04-19T13:16:25;19.60;98.90
18898;DHT22;9581;49.484;8.556;2023-04-19T13:18:52;20.40;98.50
18898;DHT22;9581;49.484;8.556;2023-04-19T13:21:19;20.80;97.70
18898;DHT22;9581;49.484;8.556;2023-04-19T13:23:48;20.90;96.40
18898;DHT22;9581;49.484;8.556;2023-04-19T13:26:15;21.10;95.00
18898;DHT22;9581;49.484;8.556;2023-04-19T13:28:41;21.70;97.20
18898;DHT22;9581;49.484;8.556;2023-04-19T13:31:08;21.00;94.60
18898;DHT22;9581;49.484;8.556;2023-04-19T13:33:36;20.10;94.80
18898;DHT22;9581;49.484;8.556;2023-04-19T13:36:04;19.50;96.20
18898;DHT22;9581;49.484;8.556;2023-04-19T13:38:30;19.20;96.70
18898;DHT22;9581;49.484;8.556;2023-04-19T13:40:58;20.30;96.70
18898;DHT22;9581;49.484;8.556;2023-04-19T13:43:24;21.90;96.10
18898;DHT22;9581;49.484;8.556;2023-04-19T13:45:51;21.00;93.40
18898;DHT22;9581;49.484;8.556;2023-04-19T13:48:18;19.80;94.30
18898;DHT22;9581;49.484;8.556;2023-04-19T13:50:46;20.00;96.10
18898;DHT22;9581;49.484;8.556;2023-04-19T13:53:14;21.30;94.10
18898;DHT22;9581;49.484;8.556;2023-04-19T13:55:41;23.00;93.10
18898;DHT22;9581;49.484;8.556;2023-04-19T13:58:08;22.90;91.70
18898;DHT22;9581;49.484;8.556;2023-04-19T14:00:35;22.90;90.90
18898;DHT22;9581;49.484;8.556;2023-04-19T14:03:02;22.80;90.60
18898;DHT22;9581;49.484;8.556;2023-04-19T14:05:29;21.90;88.80
18898;DHT22;9581;49.484;8.556;2023-04-19T14:07:58;21.00;90.20
18898;DHT22;9581;49.484;8.556;2023-04-19T14:10:25;20.20;90.50
18898;DHT22;9581;49.484;8.556;2023-04-19T14:12:51;19.30;89.90
18898;DHT22;9581;49.484;8.556;2023-04-19T14:15:19;18.80;91.20
18898;DHT22;9581;49.484;8.556;2023-04-19T14:17:46;18.60;91.40
18898;DHT22;9581;49.484;8.556;2023-04-19T14:20:12;18.50;90.40
18898;DHT22;9581;49.484;8.556;2023-04-19T14:22:40;19.90;90.60
18898;DHT22;9581;49.484;8.556;2023-04-19T14:25:09;19.70;89.90
18898;DHT22;9581;49.484;8.556;2023-04-19T14:27:37;19.40;87.10
18898;DHT22;9581;49.484;8.556;2023-04-19T14:30:04;19.40;85.00
18898;DHT22;9581;49.484;8.556;2023-04-19T14:32:31;18.90;86.60
18898;DHT22;9581;49.484;8.556;2023-04-19T14:34:58;18.70;87.90
18898;DHT22;9581;49.484;8.556;2023-04-19T14:37:26;18.70;90.00
18898;DHT22;9581;49.484;8.556;2023-04-19T14:39:53;18.70;86.30
18898;DHT22;9581;49.484;8.556;2023-04-19T14:42:21;18.30;85.50
18898;DHT22;9581;49.484;8.556;2023-04-19T14:44:49;18.10;86.70
18898;DHT22;9581;49.484;8.556;2023-04-19T14:47:16;18.10;84.40
18898;DHT22;9581;49.484;8.556;2023-04-19T14:49:43;18.00;83.70
18898;DHT22;9581;49.484;8.556;2023-04-19T14:52:10;17.90;84.50
18898;DHT22;9581;49.484;8.556;2023-04-19T14:54:37;18.00;82.80
18898;DHT22;9581;49.484;8.556;2023-04-19T14:57:03;17.80;85.40
18898;DHT22;9581;49.484;8.556;2023-04-19T14:59:32;17.80;85.30
18898;DHT22;9581;49.484;8.556;2023-04-19T15:01:58;17.70;84.50
18898;DHT22;9581;49.484;8.556;2023-04-19T15:04:25;18.90;81.30
18898;DHT22;9581;49.484;8.556;2023-04-19T15:06:52;19.30;81.70
18898;DHT22;9581;49.484;8.556;2023-04-19T15:09:19;19.10;78.60
18898;DHT22;9581;49.484;8.556;2023-04-19T15:11:46;19.10;79.90
18898;DHT22;9581;49.484;8.556;2023-04-19T15:14:12;22.40;75.80
18898;DHT22;9581;49.484;8.556;2023-04-19T15:16:40;26.20;61.20
18898;DHT22;9581;49.484;8.556;2023-04-19T15:19:07;23.80;63.40
18898;DHT22;9581;49.484;8.556;2023-04-19T15:21:34;21.60;65.10
18898;DHT22;9581;49.484;8.556;2023-04-19T15:24:01;24.80;64.20
18898;DHT22;9581;49.484;8.556;2023-04-19T15:26:28;30.30;55.20
18898;DHT22;9581;49.484;8.556;2023-04-19T15:28:55;32.10;49.20
18898;DHT22;9581;49.484;8.556;2023-04-19T15:31:23;31.00;46.40
18898;DHT22;9581;49.484;8.556;2023-04-19T15:33:52;30.70;45.50
18898;DHT22;9581;49.484;8.556;2023-04-19T15:36:19;30.20;44.80
18898;DHT22;9581;49.484;8.556;2023-04-19T15:38:45;30.10;45.70
18898;DHT22;9581;49.484;8.556;2023-04-19T15:41:12;30.60;43.70
18898;DHT22;9581;49.484;8.556;2023-04-19T15:43:39;31.20;42.80
18898;DHT22;9581;49.484;8.556;2023-04-19T15:46:11;30.60;41.20
18898;DHT22;9581;49.484;8.556;2023-04-19T15:48:38;31.70;42.40